Terminal Aerodrome Forecast
Issued by NWS Cleveland, OH

Home | Current Version | Previous Version | Text Only | Print | Product List | Glossary Off
Versions: 1 2 3 4 5 6 7 8 9 10 11 12 13 14 15 16 17 18 19 20 21 22 23 24

000
FTUS41 KCLE 170100 AAA
TAFTOL
TAF AMD
KTOL 170144Z 1702/1724 18003KT P6SM BKN020 OVC040
      TEMPO 1702/1706 SCT002
     FM171400 29005KT P6SM SCT020=

USA.gov is the U.S. government's official web portal to all federal, state and local government web resources and services.